KTA weather

Karratha Airport
Karratha, Western Australia, Australia

Public forecast

Using degrees Celsius for public forecast. Weather courtesy of forecast.io.

METAR (pilot weather report)

Closest report is Barrow Island Airport, 77.3 nm (143.1 km) W. Retrieved 2017/07/27 20:00 UTC (6 minutes ago):

YBWX 272000Z AUTO 17009KT //// // ////// 21/16 Q1016

TAF (pilot weather forecast)

Closest forecast is Port Hedland International Airport, 106.1 nm (196.5 km) E. Retrieved 2017/07/27 18:36 UTC (1 hour ago):

TAF YPPD 271659Z 2718/2818 17005KT CAVOK FM280000 12010KT CAVOK FM280400 01012KT CAVOK FM281200 28005KT CAVOK